Whitesboro, NY

9:32 PM EDT on September 02, 2014 (GMT -0400)
KNYCLARK2 | Change Station
CLOSE
Current Station
Personal Weather Station
Location: Clark Mills, NY
Elevation: 535 ft
Nearby Weather Stations
Active Advisory: Special Statement

Elev 535 ft 43.09 °N, 75.37 °W | Updated 15 minutes ago

Rain
Rain
67.6 °F
Feels Like 67.6 °F
N
0.0
Wind Variable Wind from SSW

Today
High -- | Low -- °F
--% Chance of Precip.
Yesterday
High -- | Low -- °F
Precip. -- in
6:26 AM 7:34 PM
First Quarter, 57% visible
Pressure 29.82 in
Visibility 10.0 miles
Clouds Few 1500 ft
Scattered Clouds 4600 ft
Mostly Cloudy 6000 ft
Dew Point 67 °F
Humidity 98%
Rainfall 1.57 in
Snow Depth Not available.
UV 0 out of 12
Pollen 5.60 out of 12
Ozone Good
PM2.5 Good
Flu Activity Not available.
METAR KRME 030053Z 33007KT 10SM -RA FEW015 SCT046 BKN060 20/17 A2983 RMK AO2 SLP098 P0015 T02000172

More Conditions Fewer Conditions

Pressure 29.82 in
Visibility 10.0 miles
Clouds Few 1500 ft
Scattered Clouds 4600 ft
Mostly Cloudy 6000 ft
Dew Point 67 °F
Humidity 98%
Rainfall 1.57 in
Snow Depth Not available.
UV 0 out of 12
Pollen 5.60 out of 12
Ozone Good
PM2.5 Good
Flu Activity Not available.
METAR KRME 030053Z 33007KT 10SM -RA FEW015 SCT046 BKN060 20/17 A2983 RMK AO2 SLP098 P0015 T02000172

More Conditions Fewer Conditions

10-Day Weather Forecast

Almanac

Astronomy

Sep. 02, 2014 Rise Set
Actual Time 6:26 AM EDT 7:34 PM EDT
Civil Twilight 5:57 AM EDT 8:03 PM EDT
Nautical Twilight 5:22 AM EDT 8:38 PM EDT
Astronomical Twilight 4:45 AM EDT 9:15 PM EDT
Moon 2:19 PM EDT (9/2) No Moon Set
Length of Visible Light 14h 06m
Length of Day
13h 07m
Tomorrow will be 2m 50s shorter.
First Quarter, 57% of the Moon is Illuminated
Today
First Quarter
Sep 8
Full
Sep 15
Last Quarter
Sep 24
New
Oct 1
First Quarter

Today's Extremes

State Highs State Lows

Community

WunderPhotos

Upload Photos

1,749,829 photos uploaded!

Nearby

Air Quality

  Air Quality AQ Index Pollutant
Yesterday Good
PM2.5
Yesterday Good
OZONE
Current Good
PM2.5
Current Good
OZONE
Tuesday Good
PM2.5
Tuesday Good
OZONE
Wednesday Good
OZONE
Wednesday Good
PM2.5

Snow Depth

Station Depth Elevation
No new snow has been reported.

Earthquake Activity

City Distance Mag. Time & Date
No recent earthquake activity has been reported nearby.
Minimum magnitude displayed is 2.5.

Coastal Water Temperatures

Place Temperature
No Stations Reporting

Nearby Weather Stations